Story, Indiana
Current Conditions -  °F | °C
As of 9:35 AM on Saturday 25 Oct 2014 (Local Time) from K1II Reporting Station
Overcast Overcast  
Wind Chill: 14°   Ceiling: 2000
Heat Index: 14°   Visibility: 10mi
Dew Point: 11°   Wind: 6mph
Humidity: 82%   Direction: 240°WSW
Pressure: 30"   Gusts: NA
Location:  39.193°N, 86.2182°W
Report Text: K1II 251335Z AUTO 24005KT 10SM OVC020 14/11 A3000 RMK AO2
Loading
Personal Weather Stations






























Interactive Weather Map
Tropical Storm Tracking
New forecast layout! Learn more

10-Day Weather Forecast

Advertisements
Track Severe Weather on mobile